FIX YCFS-YPKS
Flight info
| Callsign | FIX |
|---|---|
| Flight time | N/A |
| Altitude | 20000 |
| Route | CFS W330 TW W411 OSRAR/N0312F280 Q35 PKS |
| Aircraft | B350/L-SDFG/S |
Departure
| Time | 2026-04-21 07:48 |
|---|---|
| Airport | Coffs Harbour Airport (YCFS) |
Arrival
| Time | N/A |
|---|---|
| Airport | Parkes Airport (YPKS) |
| Time | Latitude | Longitude | Altitude | Speed | Heading |
|---|---|---|---|---|---|
| 2026-04-21 07:29 | -30.31413 | 153.11856 | 17 ft | 0 kts | 21° |
| 2026-04-21 07:43 | -30.31412 | 153.11890 | 18 ft | 7 kts | 164° |
| 2026-04-21 07:43 | -30.31444 | 153.11890 | 18 ft | 3 kts | 187° |
| 2026-04-21 07:44 | -30.31453 | 153.11888 | 18 ft | 3 kts | 192° |
| 2026-04-21 07:44 | -30.31520 | 153.11865 | 18 ft | 12 kts | 197° |
| 2026-04-21 07:44 | -30.31584 | 153.11812 | 17 ft | 13 kts | 231° |
| 2026-04-21 07:44 | -30.31650 | 153.11721 | 16 ft | 14 kts | 231° |
| 2026-04-21 07:45 | -30.31714 | 153.11680 | 15 ft | 8 kts | 125° |
| 2026-04-21 07:45 | -30.31734 | 153.11744 | 16 ft | 9 kts | 108° |
| 2026-04-21 07:45 | -30.31752 | 153.11816 | 17 ft | 9 kts | 107° |
| 2026-04-21 07:45 | -30.31773 | 153.11890 | 18 ft | 12 kts | 107° |
| 2026-04-21 07:46 | -30.31807 | 153.11982 | 20 ft | 9 kts | 167° |
| 2026-04-21 07:46 | -30.31882 | 153.11957 | 22 ft | 15 kts | 200° |
| 2026-04-21 07:46 | -30.31973 | 153.11920 | 23 ft | 12 kts | 199° |
| 2026-04-21 07:46 | -30.32049 | 153.11889 | 21 ft | 10 kts | 200° |
| 2026-04-21 07:47 | -30.32122 | 153.11865 | 22 ft | 12 kts | 168° |
| 2026-04-21 07:47 | -30.32199 | 153.11910 | 22 ft | 13 kts | 152° |
| 2026-04-21 07:47 | -30.32279 | 153.11960 | 23 ft | 14 kts | 150° |
| 2026-04-21 07:47 | -30.32370 | 153.12016 | 25 ft | 16 kts | 148° |
| 2026-04-21 07:48 | -30.32447 | 153.12036 | 25 ft | 10 kts | 220° |
| 2026-04-21 07:48 | -30.32702 | 153.11780 | 23 ft | 90 kts | 221° |
| 2026-04-21 07:48 | -30.33293 | 153.11177 | 153 ft | 128 kts | 216° |
| 2026-04-21 07:48 | -30.33983 | 153.10469 | 647 ft | 138 kts | 217° |
| 2026-04-21 07:49 | -30.34841 | 153.09911 | 1155 ft | 151 kts | 184° |
| 2026-04-21 07:49 | -30.35799 | 153.10349 | 1830 ft | 157 kts | 134° |
| 2026-04-21 07:49 | -30.36132 | 153.11537 | 2643 ft | 166 kts | 98° |
| 2026-04-21 07:49 | -30.35845 | 153.12924 | 3179 ft | 185 kts | 67° |
| 2026-04-21 07:50 | -30.34848 | 153.13918 | 3854 ft | 197 kts | 32° |
| 2026-04-21 07:50 | -30.33634 | 153.14658 | 4544 ft | 198 kts | 30° |
| 2026-04-21 07:50 | -30.32325 | 153.15124 | 5192 ft | 202 kts | 354° |
| 2026-04-21 07:50 | -30.31117 | 153.14443 | 5864 ft | 193 kts | 303° |
| 2026-04-21 07:51 | -30.30761 | 153.13063 | 6503 ft | 176 kts | 251° |
| 2026-04-21 07:51 | -30.31245 | 153.11803 | 7124 ft | 172 kts | 236° |
| 2026-04-21 07:51 | -30.31788 | 153.10555 | 7678 ft | 175 kts | 238° |
| 2026-04-21 07:51 | -30.32294 | 153.09263 | 8230 ft | 178 kts | 241° |
| 2026-04-21 07:52 | -30.32757 | 153.07920 | 8777 ft | 181 kts | 243° |
| 2026-04-21 07:52 | -30.33197 | 153.06561 | 9277 ft | 184 kts | 244° |
| 2026-04-21 07:52 | -30.33577 | 153.05130 | 9628 ft | 188 kts | 251° |
| 2026-04-21 07:52 | -30.33878 | 153.03654 | 10055 ft | 188 kts | 250° |
| 2026-04-21 07:53 | -30.34227 | 153.02179 | 10393 ft | 191 kts | 249° |
| 2026-04-21 07:53 | -30.34574 | 153.00698 | 10801 ft | 191 kts | 251° |
| 2026-04-21 07:53 | -30.34913 | 152.99213 | 11194 ft | 191 kts | 250° |
| 2026-04-21 07:53 | -30.35248 | 152.97728 | 11597 ft | 191 kts | 250° |
| 2026-04-21 07:54 | -30.35583 | 152.96238 | 11984 ft | 191 kts | 250° |
| 2026-04-21 07:54 | -30.35934 | 152.94751 | 12363 ft | 192 kts | 250° |
| 2026-04-21 07:54 | -30.36279 | 152.93259 | 12738 ft | 192 kts | 251° |
| 2026-04-21 07:54 | -30.36621 | 152.91763 | 13105 ft | 192 kts | 251° |
| 2026-04-21 07:55 | -30.36957 | 152.90258 | 13473 ft | 193 kts | 252° |
| 2026-04-21 07:55 | -30.37298 | 152.88754 | 13837 ft | 193 kts | 251° |
| 2026-04-21 07:55 | -30.37639 | 152.87271 | 14179 ft | 193 kts | 252° |
| 2026-04-21 07:55 | -30.37989 | 152.85764 | 14496 ft | 194 kts | 251° |
| 2026-04-21 07:56 | -30.38333 | 152.84242 | 14792 ft | 196 kts | 252° |
| 2026-04-21 07:56 | -30.38677 | 152.82710 | 15054 ft | 197 kts | 251° |
| 2026-04-21 07:56 | -30.39037 | 152.81168 | 15318 ft | 199 kts | 252° |
| 2026-04-21 07:56 | -30.39381 | 152.79617 | 15672 ft | 199 kts | 252° |
| 2026-04-21 07:57 | -30.39736 | 152.78063 | 15997 ft | 200 kts | 252° |
| 2026-04-21 07:57 | -30.40096 | 152.76497 | 16310 ft | 201 kts | 252° |
| 2026-04-21 07:57 | -30.40449 | 152.74929 | 16583 ft | 203 kts | 252° |
| 2026-04-21 07:57 | -30.40811 | 152.73346 | 16877 ft | 203 kts | 251° |
| 2026-04-21 07:58 | -30.41176 | 152.71753 | 17182 ft | 205 kts | 252° |
| 2026-04-21 07:58 | -30.41535 | 152.70149 | 17475 ft | 206 kts | 251° |
| 2026-04-21 07:58 | -30.41898 | 152.68540 | 17754 ft | 207 kts | 251° |
| 2026-04-21 07:58 | -30.42267 | 152.66923 | 18041 ft | 208 kts | 251° |
| 2026-04-21 07:59 | -30.42636 | 152.65297 | 18317 ft | 209 kts | 251° |
| 2026-04-21 07:59 | -30.43000 | 152.63686 | 18592 ft | 210 kts | 251° |
| 2026-04-21 07:59 | -30.43370 | 152.62045 | 18823 ft | 211 kts | 251° |
| 2026-04-21 07:59 | -30.43741 | 152.60396 | 19045 ft | 212 kts | 251° |
| 2026-04-21 08:00 | -30.44117 | 152.58744 | 19281 ft | 212 kts | 251° |
| 2026-04-21 08:00 | -30.44491 | 152.57079 | 19485 ft | 213 kts | 251° |
| 2026-04-21 08:00 | -30.44867 | 152.55411 | 19704 ft | 214 kts | 251° |
| 2026-04-21 08:00 | -30.45246 | 152.53746 | 19918 ft | 214 kts | 250° |
| 2026-04-21 08:01 | -30.45624 | 152.52064 | 20097 ft | 218 kts | 251° |
| 2026-04-21 08:01 | -30.46009 | 152.50341 | 20178 ft | 224 kts | 250° |
| 2026-04-21 08:01 | -30.46410 | 152.48562 | 20211 ft | 231 kts | 251° |
| 2026-04-21 08:02 | -30.47240 | 152.44865 | 20247 ft | 242 kts | 251° |
| 2026-04-21 08:02 | -30.47667 | 152.42960 | 20270 ft | 246 kts | 250° |
| 2026-04-21 08:02 | -30.48102 | 152.41032 | 20263 ft | 249 kts | 251° |
| 2026-04-21 08:02 | -30.48539 | 152.39082 | 20269 ft | 251 kts | 250° |